Altus, OK

6:34 AM CDT on July 31, 2014 (GMT -0500)
Corbin & Russell Addition (KOKALTUS8) Elev 1407 ft | 34.65 °N, 99.34 °W | Change Station

Current weather conditions updated 8 seconds ago

Overcast
Overcast
67.1 °F
Feels Like 67.1 °F
N
4.0
Wind Variable Wind from North
Gusts 11.0 mph

Today is forecast to be nearly the same temperature as yesterday.

Today
High -- | Low -- °F
--% Chance of Precip.
Yesterday
High -- | Low -- °F
Precip. -- in
6:46 AM 8:40 PM
Waxing Crescent, 18% visible
Pressure 30.08 in
Visibility 10.0 miles
Clouds Overcast 800 ft
Dew Point 67 °F
Humidity 99%
Rainfall 0.00 in
Snow Depth Not available.
UV 0 out of 12
Pollen 3.00 out of 12
Air Quality Not available.
Flu Activity Not available.
SPECI KLTS 311116Z AUTO 36010KT 10SM OVC008 20/20 A3008 RMK AO2

More Conditions Fewer Conditions

Pressure 30.08 in
Visibility 10.0 miles
Clouds Overcast 800 ft
Dew Point 67 °F
Humidity 99%
Rainfall 0.00 in
Snow Depth Not available.
UV 0 out of 12
Pollen 3.00 out of 12
Air Quality Not available.
Flu Activity Not available.
SPECI KLTS 311116Z AUTO 36010KT 10SM OVC008 20/20 A3008 RMK AO2

More Conditions Fewer Conditions

10-Day Weather Forecast

Almanac

Astronomy

Jul. 31, 2014 Rise Set
Actual Time 6:46 AM CDT 8:40 PM CDT
Civil Twilight 6:19 AM CDT 9:07 PM CDT
Nautical Twilight 5:45 AM CDT 9:41 PM CDT
Astronomical Twilight 5:09 AM CDT 10:16 PM CDT
Moon 11:02 AM CDT 11:08 PM CDT
Length of Visible Light 14h 48m
Length of Day
13h 53m
Tomorrow will be 1m 37s shorter.
Waxing Crescent, 18% of the Moon is Illuminated
Today
Waxing Crescent
Aug 3
First Quarter
Aug 10
Full
Aug 17
Last Quarter
Aug 25
New

Today's Extremes

State Highs State Lows

Community

WunderPhotos

Upload Photos

1,739,296 photos uploaded!

WunderBlogs® & News

Nearby

Snow Depth

Station Depth Elevation
No new snow has been reported.

Earthquake Activity

City Distance Mag. Time & Date
Perry, Oklahoma 154 miles 2.8 4:28 AM CDT
2014-07-27
Helena, Oklahoma 150 miles 3.3 11:56 PM CDT
2014-07-24
Minimum magnitude displayed is 2.5.

Coastal Water Temperatures

Place Temperature
No Stations Reporting

Nearby Weather Stations

Station Location Temp. Dew Point Humidity Wind Precip. Elev Updated Type
Corbin & Russell Addition, Altus, OK 67.1 °F 67 °F 99% North  at  4.0 mph 0.00 in / hr 1407 ft 6:34 AM CDT Rapid Fire
S. Louisiana, Mangum, OK 66.2 °F 63 °F 89% NW  at  4.0 mph 0.00 in / hr 1543 ft 6:32 AM CDT Normal
KD5PBR Turner Farm, Odell, TX 67.9 °F 63 °F 85% NW  at  11.0 mph 0.00 in / hr 1341 ft 6:34 AM CDT Rapid Fire
Turner Home, Odell, TX 67.7 °F 65 °F 91% North  at  10.0 mph 0.00 in / hr 1347 ft 6:34 AM CDT Rapid Fire
Northside ISD, Vernon, TX 67.3 °F 66 °F 94% NNW  at  8.0 mph 0.00 in / hr 1317 ft 6:34 AM CDT Rapid Fire
Petzold Consulting, Lone Wolf, OK 66.4 °F 66 °F 98% North  at  6.5 mph 0.00 in / hr 1588 ft 6:34 AM CDT Rapid Fire

Show More Stations Show Fewer Stations